Time;durP1;ratioP1;P1;durP2;ratioP2;P2;SDS_P1;SDS_P2;PMS_P1;PMS_P2;Temp;Humidity;BMP_temperature;BMP_pressure;BME280_temperature;BME280_humidity;BME280_pressure;Samples;Min_cycle;Max_cycle;Signal;HPM_P1;HPM_P2
2021/12/17 00:07:00;;;;;;;76.53;28.75;;;;;;;;;;4979793;28;20030;-44
2021/12/17 00:09:26;;;;;;;80.00;28.83;;;;;;;;;;4974719;28;20023;-43
2021/12/17 00:11:52;;;;;;;79.40;27.73;;;;;;;;;;4977826;28;20022;-44
2021/12/17 00:14:26;;;;;;;83.57;27.83;;;;;;;;;;4978039;28;20038;-44
2021/12/17 00:16:54;;;;;;;81.43;28.27;;;;;;;;;;4977909;28;20034;-43
2021/12/17 00:19:36;;;;;;;87.05;28.45;;;;;;;;;;4975496;28;20033;-43
2021/12/17 00:49:18;;;;;;;48.13;14.45;;;;;;;;;;4977742;28;20038;-43
2021/12/17 00:54:30;;;;;;;27.45;9.05;;;;;;;;;;4991974;28;20061;-44
2021/12/17 00:56:57;;;;;;;28.58;8.75;;;;;;;;;;4981460;28;20026;-43
2021/12/17 00:59:23;;;;;;;25.88;8.88;;;;;;;;;;4976744;28;20452;-44
2021/12/17 01:01:50;;;;;;;25.48;8.63;;;;;;;;;;4978089;28;20038;-43
2021/12/17 01:04:16;;;;;;;24.05;9.50;;;;;;;;;;4974265;28;20481;-43
2021/12/17 01:06:43;;;;;;;25.02;9.02;;;;;;;;;;4974894;28;20085;-44
2021/12/17 01:09:09;;;;;;;28.30;9.45;;;;;;;;;;4977149;28;20030;-43
2021/12/17 01:11:36;;;;;;;26.33;10.93;;;;;;;;;;4976706;28;20031;-44
2021/12/17 01:14:03;;;;;;;28.75;11.85;;;;;;;;;;4978150;28;20161;-43
2021/12/17 01:16:30;;;;;;;34.95;15.00;;;;;;;;;;4981817;28;20445;-44
2021/12/17 01:19:08;;;;;;;33.38;14.43;;;;;;;;;;4973605;28;20027;-43
2021/12/17 01:21:55;;;;;;;34.65;15.25;;;;;;;;;;4977707;28;20081;-44
2021/12/17 01:24:35;;;;;;;39.47;14.75;;;;;;;;;;4977915;28;20037;-44
2021/12/17 01:35:29;;;;;;;46.05;19.77;;;;;;;;;;4978610;28;21481;-44
2021/12/17 01:42:58;;;;;;;62.85;22.77;;;;;;;;;;4975277;28;20557;-43
2021/12/17 01:45:29;;;;;;;60.55;23.35;;;;;;;;;;4977672;28;20057;-44
2021/12/17 01:47:55;;;;;;;72.93;25.00;;;;;;;;;;4980580;28;20037;-44
2021/12/17 01:56:05;;;;;;;73.70;26.50;;;;;;;;;;4996293;28;20460;-43
2021/12/17 02:01:16;;;;;;;72.85;27.00;;;;;;;;;;4991610;28;20513;-43
2021/12/17 02:03:42;;;;;;;79.20;26.63;;;;;;;;;;4990732;28;20068;-43
2021/12/17 02:06:08;;;;;;;82.72;28.23;;;;;;;;;;4989739;28;20030;-44
2021/12/17 02:08:35;;;;;;;74.68;27.35;;;;;;;;;;4986937;28;20468;-44
2021/12/17 02:22:17;;;;;;;63.80;23.47;;;;;;;;;;4990934;28;20069;-44
2021/12/17 02:32:40;;;;;;;51.28;19.45;;;;;;;;;;4997691;28;20113;-43
2021/12/17 02:37:42;;;;;;;46.13;17.20;;;;;;;;;;4993946;28;20030;-44
2021/12/17 02:42:30;;;;;;;53.47;19.45;;;;;;;;;;5001965;28;20033;-44
2021/12/17 02:45:32;;;;;;;45.85;18.35;;;;;;;;;;4992030;28;20518;-43
2021/12/17 02:48:08;;;;;;;45.38;19.02;;;;;;;;;;5006400;28;20038;-43
2021/12/17 02:50:36;;;;;;;49.95;17.60;;;;;;;;;;4996994;28;20117;-44
2021/12/17 02:53:07;;;;;;;43.22;17.25;;;;;;;;;;4993032;28;20077;-44
2021/12/17 02:55:34;;;;;;;39.55;15.85;;;;;;;;;;4998809;28;20030;-44
2021/12/17 02:58:00;;;;;;;43.42;16.80;;;;;;;;;;4997929;28;20053;-44
2021/12/17 03:00:26;;;;;;;46.30;16.45;;;;;;;;;;4994026;28;20096;-44
2021/12/17 03:02:52;;;;;;;50.42;18.17;;;;;;;;;;4993524;28;20069;-44
2021/12/17 03:05:18;;;;;;;40.08;16.65;;;;;;;;;;4993728;28;20366;-44
2021/12/17 03:07:47;;;;;;;41.65;16.20;;;;;;;;;;4993769;28;20101;-44
2021/12/17 03:10:14;;;;;;;41.47;15.80;;;;;;;;;;5004091;28;20026;-44
2021/12/17 03:12:47;;;;;;;38.45;14.85;;;;;;;;;;5001401;28;20022;-44
2021/12/17 03:15:27;;;;;;;35.75;14.63;;;;;;;;;;4992706;28;20423;-44
2021/12/17 03:23:39;;;;;;;39.60;16.02;;;;;;;;;;4995013;28;20179;-43
2021/12/17 03:26:07;;;;;;;44.33;15.90;;;;;;;;;;4992626;28;20037;-44
2021/12/17 03:28:33;;;;;;;38.25;16.20;;;;;;;;;;4995258;28;20468;-43
2021/12/17 03:31:00;;;;;;;33.53;13.18;;;;;;;;;;4994508;28;20057;-44
2021/12/17 03:33:26;;;;;;;28.70;12.77;;;;;;;;;;5003707;28;20037;-44
2021/12/17 03:35:53;;;;;;;38.45;14.50;;;;;;;;;;4992800;28;20031;-44
2021/12/17 03:38:19;;;;;;;42.85;15.25;;;;;;;;;;4994007;28;20520;-44
2021/12/17 03:40:46;;;;;;;39.45;14.50;;;;;;;;;;4992367;28;20027;-44
2021/12/17 03:43:20;;;;;;;41.72;13.82;;;;;;;;;;4994332;28;20107;-44
2021/12/17 03:45:46;;;;;;;35.72;14.07;;;;;;;;;;4992534;28;20046;-44
2021/12/17 03:48:12;;;;;;;39.97;14.60;;;;;;;;;;4992811;28;20028;-44
2021/12/17 03:50:38;;;;;;;35.00;12.77;;;;;;;;;;4997503;28;20125;-44
2021/12/17 03:53:05;;;;;;;26.83;10.90;;;;;;;;;;4989610;28;20074;-44
2021/12/17 03:55:31;;;;;;;26.98;10.35;;;;;;;;;;4992950;28;20057;-43
2021/12/17 03:57:59;;;;;;;21.58;9.35;;;;;;;;;;4992942;28;20030;-44
2021/12/17 04:00:25;;;;;;;24.60;9.43;;;;;;;;;;4991327;28;20030;-44
2021/12/17 04:02:51;;;;;;;22.65;10.18;;;;;;;;;;4992624;28;20121;-44
2021/12/17 04:05:17;;;;;;;19.92;8.43;;;;;;;;;;5001263;28;20501;-44
2021/12/17 04:07:43;;;;;;;23.40;9.65;;;;;;;;;;4992231;28;20414;-43
2021/12/17 04:10:09;;;;;;;22.15;8.85;;;;;;;;;;4991912;28;20054;-45
2021/12/17 04:12:52;;;;;;;23.00;8.63;;;;;;;;;;4999204;28;20438;-44
2021/12/17 04:15:18;;;;;;;25.65;11.13;;;;;;;;;;4994322;28;20030;-44
2021/12/17 04:17:52;;;;;;;22.95;10.07;;;;;;;;;;4989394;28;20030;-45
2021/12/17 04:20:18;;;;;;;19.27;7.55;;;;;;;;;;4997223;28;20086;-44
2021/12/17 04:22:44;;;;;;;17.75;6.60;;;;;;;;;;4985453;28;20065;-46
2021/12/17 04:25:10;;;;;;;16.75;7.00;;;;;;;;;;4980403;28;20049;-43
2021/12/17 04:27:36;;;;;;;8.82;4.50;;;;;;;;;;4983979;28;20394;-44
2021/12/17 04:30:02;;;;;;;10.07;4.50;;;;;;;;;;4986590;28;20025;-44
2021/12/17 04:32:28;;;;;;;10.90;4.22;;;;;;;;;;4985077;28;20026;-44
2021/12/17 04:34:54;;;;;;;9.55;4.68;;;;;;;;;;4979096;28;20030;-43
2021/12/17 04:37:20;;;;;;;11.63;4.28;;;;;;;;;;4981417;28;20019;-44
2021/12/17 04:39:46;;;;;;;10.60;4.57;;;;;;;;;;4983824;28;20054;-44
2021/12/17 04:42:24;;;;;;;11.57;4.93;;;;;;;;;;4980684;28;20050;-44
2021/12/17 04:44:54;;;;;;;12.57;5.05;;;;;;;;;;4982176;28;20026;-44
2021/12/17 04:58:19;;;;;;;9.38;4.10;;;;;;;;;;4980422;28;20350;-44
2021/12/17 05:00:46;;;;;;;10.52;4.28;;;;;;;;;;4981268;28;20108;-44
2021/12/17 05:03:12;;;;;;;9.60;4.32;;;;;;;;;;4982982;28;20027;-44
2021/12/17 05:05:38;;;;;;;9.88;4.68;;;;;;;;;;4982543;28;20109;-46
2021/12/17 05:08:10;;;;;;;14.85;4.70;;;;;;;;;;4979412;28;20023;-45
2021/12/17 05:19:43;;;;;;;11.23;5.07;;;;;;;;;;4932709;28;20065;-45
2021/12/17 05:22:11;;;;;;;10.77;4.63;;;;;;;;;;4978766;28;20026;-44
2021/12/17 05:24:37;;;;;;;9.75;5.13;;;;;;;;;;4983258;28;20477;-44
2021/12/17 05:27:04;;;;;;;12.60;5.35;;;;;;;;;;4979847;28;20076;-45
2021/12/17 05:29:30;;;;;;;10.50;5.30;;;;;;;;;;4981773;28;20524;-44
2021/12/17 05:31:56;;;;;;;12.07;5.25;;;;;;;;;;4985120;28;20073;-43
2021/12/17 05:34:22;;;;;;;10.70;5.95;;;;;;;;;;4982277;28;20089;-44
2021/12/17 05:36:48;;;;;;;11.00;5.43;;;;;;;;;;4971225;28;20669;-44
2021/12/17 05:39:14;;;;;;;9.82;4.25;;;;;;;;;;4980737;28;20720;-44
2021/12/17 05:41:40;;;;;;;10.25;5.00;;;;;;;;;;4979719;28;20366;-44
2021/12/17 05:44:06;;;;;;;10.95;4.97;;;;;;;;;;4982676;28;20116;-44
2021/12/17 05:46:49;;;;;;;13.43;4.88;;;;;;;;;;4983148;28;20106;-44
2021/12/17 05:49:16;;;;;;;10.65;4.80;;;;;;;;;;4980080;28;20157;-43
2021/12/17 05:51:42;;;;;;;10.75;5.22;;;;;;;;;;4981537;28;20027;-43
2021/12/17 05:54:08;;;;;;;11.48;5.80;;;;;;;;;;4980644;28;20631;-43
2021/12/17 05:56:34;;;;;;;9.82;5.32;;;;;;;;;;4982084;28;20149;-44
2021/12/17 05:59:00;;;;;;;13.63;5.00;;;;;;;;;;4983853;28;20034;-44
2021/12/17 06:01:26;;;;;;;18.38;6.00;;;;;;;;;;4978759;28;20027;-44
2021/12/17 06:03:52;;;;;;;13.38;5.72;;;;;;;;;;4985340;28;20053;-43
2021/12/17 06:06:31;;;;;;;15.35;6.95;;;;;;;;;;4980844;28;20570;-44
2021/12/17 06:08:57;;;;;;;12.73;6.50;;;;;;;;;;4985513;28;20022;-45
2021/12/17 06:11:23;;;;;;;11.98;5.50;;;;;;;;;;4980699;28;20073;-44
2021/12/17 06:13:49;;;;;;;11.55;5.00;;;;;;;;;;4985197;28;20382;-44
2021/12/17 06:16:16;;;;;;;14.85;5.55;;;;;;;;;;4982991;28;20046;-44
2021/12/17 06:18:42;;;;;;;12.20;4.82;;;;;;;;;;4987923;28;20092;-43
2021/12/17 06:21:08;;;;;;;12.65;4.95;;;;;;;;;;4983551;28;20038;-44
2021/12/17 06:23:34;;;;;;;10.13;4.43;;;;;;;;;;4984153;28;20101;-44
2021/12/17 06:26:00;;;;;;;13.05;4.45;;;;;;;;;;4982634;28;20736;-44
2021/12/17 06:28:26;;;;;;;9.15;3.90;;;;;;;;;;4991540;28;20059;-44
2021/12/17 06:30:52;;;;;;;9.57;4.22;;;;;;;;;;4985204;28;20022;-44
2021/12/17 06:33:18;;;;;;;10.35;4.50;;;;;;;;;;4993516;28;20102;-44
2021/12/17 06:35:44;;;;;;;10.60;4.45;;;;;;;;;;4994241;28;20033;-45
2021/12/17 06:38:10;;;;;;;12.77;4.05;;;;;;;;;;4993395;28;20065;-43
2021/12/17 06:40:36;;;;;;;12.57;4.10;;;;;;;;;;4992569;28;20069;-43
2021/12/17 06:43:03;;;;;;;11.30;4.50;;;;;;;;;;4994085;28;20030;-43
2021/12/17 06:45:49;;;;;;;13.85;4.28;;;;;;;;;;4993979;28;20033;-44
2021/12/17 06:48:15;;;;;;;8.98;3.72;;;;;;;;;;4995584;28;20030;-46
2021/12/17 06:59:36;;;;;;;11.50;3.83;;;;;;;;;;4992686;28;20064;-44
2021/12/17 07:21:10;;;;;;;6.50;2.00;;;;;;;;;;4988364;28;20030;-43
2021/12/17 07:34:06;;;;;;;5.25;2.08;;;;;;;;;;4990482;28;20424;-43
2021/12/17 07:36:45;;;;;;;5.63;2.33;;;;;;;;;;4995611;28;20473;-42
2021/12/17 07:39:11;;;;;;;4.50;1.83;;;;;;;;;;4989314;28;20033;-42
2021/12/17 07:41:37;;;;;;;6.13;2.40;;;;;;;;;;4990332;28;20018;-43
2021/12/17 07:44:03;;;;;;;7.95;2.22;;;;;;;;;;4991274;28;20113;-42
2021/12/17 07:46:30;;;;;;;5.85;2.30;;;;;;;;;;4993833;28;20019;-43
2021/12/17 07:48:56;;;;;;;7.43;2.65;;;;;;;;;;4989276;28;20026;-43
2021/12/17 07:51:24;;;;;;;3.72;2.00;;;;;;;;;;4989859;28;20092;-43
2021/12/17 07:53:50;;;;;;;8.85;2.70;;;;;;;;;;4989625;28;20145;-42
2021/12/17 07:56:18;;;;;;;9.15;2.60;;;;;;;;;;4991625;28;20603;-42
2021/12/17 07:58:44;;;;;;;8.75;3.83;;;;;;;;;;4989116;28;20355;-43
2021/12/17 08:01:10;;;;;;;8.70;3.08;;;;;;;;;;4988513;28;20117;-43
2021/12/17 08:03:37;;;;;;;8.23;2.85;;;;;;;;;;4993369;28;20018;-43
2021/12/17 08:06:03;;;;;;;10.18;2.97;;;;;;;;;;4989094;28;20030;-43
2021/12/17 08:08:29;;;;;;;9.82;3.40;;;;;;;;;;4990267;28;20026;-42
2021/12/17 08:10:56;;;;;;;7.00;2.70;;;;;;;;;;4986385;28;20037;-42
2021/12/17 08:13:25;;;;;;;11.20;2.90;;;;;;;;;;4989268;28;20022;-42
2021/12/17 08:29:27;;;;;;;4.65;1.92;;;;;;;;;;4991754;28;20026;-43
2021/12/17 08:31:54;;;;;;;4.35;1.88;;;;;;;;;;4989263;28;20086;-43
2021/12/17 08:34:20;;;;;;;4.45;1.80;;;;;;;;;;4992312;28;20092;-44
2021/12/17 08:36:46;;;;;;;5.47;1.92;;;;;;;;;;4991455;28;20026;-43
2021/12/17 08:39:12;;;;;;;7.15;2.42;;;;;;;;;;4991589;28;20054;-43
2021/12/17 08:41:40;;;;;;;6.20;2.58;;;;;;;;;;4991240;28;20581;-43
2021/12/17 08:44:06;;;;;;;5.88;2.30;;;;;;;;;;4995086;28;20038;-43
2021/12/17 08:46:32;;;;;;;5.18;2.50;;;;;;;;;;4993139;28;20588;-43
2021/12/17 08:48:58;;;;;;;8.25;3.53;;;;;;;;;;4989534;28;20026;-43
2021/12/17 08:51:25;;;;;;;7.43;2.80;;;;;;;;;;4990750;28;20028;-44
2021/12/17 08:53:51;;;;;;;5.63;2.55;;;;;;;;;;4996580;28;20386;-43
2021/12/17 08:56:22;;;;;;;7.28;2.63;;;;;;;;;;4997194;28;20137;-43
2021/12/17 08:58:51;;;;;;;6.88;3.13;;;;;;;;;;4988817;28;20410;-38
2021/12/17 09:01:17;;;;;;;5.28;2.85;;;;;;;;;;4991474;28;20034;-38
2021/12/17 09:03:43;;;;;;;6.72;2.55;;;;;;;;;;4989834;28;20461;-38
2021/12/17 09:06:09;;;;;;;6.30;2.67;;;;;;;;;;4988565;28;20054;-38
2021/12/17 09:08:35;;;;;;;4.97;2.28;;;;;;;;;;4990093;28;20041;-38
2021/12/17 09:11:01;;;;;;;6.03;2.30;;;;;;;;;;4990210;28;20484;-38
2021/12/17 09:13:28;;;;;;;3.97;1.85;;;;;;;;;;4988647;28;20022;-38
2021/12/17 09:15:55;;;;;;;5.55;1.50;;;;;;;;;;4988118;28;20070;-38
2021/12/17 09:18:21;;;;;;;3.92;1.70;;;;;;;;;;4988448;28;20026;-38
2021/12/17 09:20:47;;;;;;;4.03;1.30;;;;;;;;;;4987607;28;20027;-38
2021/12/17 09:23:13;;;;;;;2.03;0.93;;;;;;;;;;4987796;28;20401;-38
2021/12/17 09:25:39;;;;;;;1.95;1.15;;;;;;;;;;4988306;28;20030;-38
2021/12/17 09:28:05;;;;;;;1.38;0.60;;;;;;;;;;4989899;28;20032;-38
2021/12/17 09:30:31;;;;;;;1.85;0.70;;;;;;;;;;4989888;28;20022;-38
2021/12/17 09:32:57;;;;;;;0.98;0.52;;;;;;;;;;4986531;28;20026;-38
2021/12/17 09:35:24;;;;;;;1.25;0.50;;;;;;;;;;4986428;28;20097;-38
2021/12/17 09:37:51;;;;;;;1.40;0.60;;;;;;;;;;4989961;28;20551;-38
2021/12/17 09:40:17;;;;;;;1.48;0.80;;;;;;;;;;4989589;28;20028;-38
2021/12/17 09:42:45;;;;;;;1.60;0.77;;;;;;;;;;4991816;28;20029;-38
2021/12/17 09:45:12;;;;;;;1.00;0.55;;;;;;;;;;4988519;28;20049;-38
2021/12/17 09:47:38;;;;;;;2.40;1.13;;;;;;;;;;4994691;28;20046;-38
2021/12/17 09:50:04;;;;;;;2.78;0.90;;;;;;;;;;4994483;28;20105;-38
2021/12/17 09:52:31;;;;;;;2.10;0.75;;;;;;;;;;4995313;28;20033;-38
2021/12/17 09:54:57;;;;;;;1.27;0.73;;;;;;;;;;4992353;28;20065;-38
2021/12/17 09:57:25;;;;;;;1.65;0.70;;;;;;;;;;4989914;28;20474;-38
2021/12/17 09:59:51;;;;;;;2.00;0.85;;;;;;;;;;4994943;28;20109;-38
2021/12/17 10:02:17;;;;;;;2.63;1.05;;;;;;;;;;4988834;28;20185;-36
2021/12/17 10:04:45;;;;;;;3.15;1.35;;;;;;;;;;4989172;28;20454;-37
2021/12/17 10:07:17;;;;;;;2.65;1.23;;;;;;;;;;4989512;28;20030;-37
2021/12/17 10:09:47;;;;;;;2.63;1.35;;;;;;;;;;4988854;28;20066;-39
2021/12/17 10:12:13;;;;;;;2.53;1.25;;;;;;;;;;5001678;28;20057;-39
2021/12/17 10:14:41;;;;;;;2.83;1.55;;;;;;;;;;4989344;28;20075;-42
2021/12/17 10:17:11;;;;;;;3.03;1.55;;;;;;;;;;4989933;28;20030;-38
2021/12/17 10:19:45;;;;;;;4.43;2.00;;;;;;;;;;4984399;28;20105;-40
2021/12/17 10:22:12;;;;;;;4.60;2.50;;;;;;;;;;4989865;28;20026;-37
2021/12/17 10:24:42;;;;;;;4.03;2.00;;;;;;;;;;4988503;28;20419;-39
2021/12/17 10:27:21;;;;;;;2.70;1.50;;;;;;;;;;4987166;28;20518;-41
2021/12/17 10:29:47;;;;;;;2.42;1.38;;;;;;;;;;4986754;28;20034;-38
2021/12/17 10:32:17;;;;;;;2.33;1.42;;;;;;;;;;4986129;28;20038;-37
2021/12/17 10:35:01;;;;;;;2.28;1.40;;;;;;;;;;4985042;28;20030;-38
2021/12/17 10:37:38;;;;;;;1.27;0.90;;;;;;;;;;4985720;28;20069;-36
2021/12/17 10:40:15;;;;;;;1.98;1.02;;;;;;;;;;4985672;28;20065;-36
2021/12/17 10:42:49;;;;;;;1.00;0.70;;;;;;;;;;4990006;28;20026;-38
2021/12/17 10:45:24;;;;;;;1.98;1.40;;;;;;;;;;4984018;28;20119;-36
2021/12/17 10:48:02;;;;;;;1.75;1.08;;;;;;;;;;4982739;28;20093;-39
2021/12/17 10:50:28;;;;;;;2.22;0.90;;;;;;;;;;4990474;28;20060;-35
2021/12/17 10:52:56;;;;;;;0.90;0.65;;;;;;;;;;4991737;28;20026;-38
2021/12/17 10:55:23;;;;;;;1.80;1.30;;;;;;;;;;4988644;28;20041;-36
2021/12/17 10:57:49;;;;;;;3.30;1.73;;;;;;;;;;4989044;28;20088;-39
2021/12/17 11:00:16;;;;;;;5.93;1.80;;;;;;;;;;4989621;28;20089;-35
2021/12/17 11:02:49;;;;;;;4.75;1.58;;;;;;;;;;4990581;28;20034;-38
2021/12/17 11:05:15;;;;;;;2.20;1.55;;;;;;;;;;4986158;28;20034;-38
2021/12/17 11:07:45;;;;;;;2.08;1.35;;;;;;;;;;4988645;28;20401;-41
2021/12/17 11:10:11;;;;;;;3.47;1.67;;;;;;;;;;4988424;28;20067;-38
2021/12/17 11:12:38;;;;;;;7.35;2.22;;;;;;;;;;4991283;28;20022;-36
2021/12/17 11:15:22;;;;;;;4.25;1.77;;;;;;;;;;4989268;28;20035;-38
2021/12/17 11:17:53;;;;;;;8.98;2.00;;;;;;;;;;4988855;28;20121;-38
2021/12/17 11:20:21;;;;;;;2.67;1.70;;;;;;;;;;4988342;28;20411;-39
2021/12/17 11:22:48;;;;;;;3.40;2.25;;;;;;;;;;4988711;28;20030;-40
2021/12/17 11:25:15;;;;;;;2.58;1.80;;;;;;;;;;4988933;28;20077;-37
2021/12/17 11:27:42;;;;;;;2.97;1.85;;;;;;;;;;4988503;28;20176;-37
2021/12/17 11:30:10;;;;;;;2.38;1.75;;;;;;;;;;4987784;28;20382;-39
2021/12/17 11:32:36;;;;;;;3.42;1.95;;;;;;;;;;4988596;28;20050;-38
2021/12/17 11:35:03;;;;;;;3.53;2.05;;;;;;;;;;4990528;28;20749;-35
2021/12/17 11:37:30;;;;;;;3.33;2.08;;;;;;;;;;4989439;28;20023;-38
2021/12/17 11:40:00;;;;;;;5.70;2.58;;;;;;;;;;4991264;28;20664;-37
2021/12/17 11:42:29;;;;;;;3.95;2.33;;;;;;;;;;4989691;28;20066;-37
2021/12/17 11:47:42;;;;;;;4.47;2.83;;;;;;;;;;4990961;28;20064;-37
2021/12/17 11:50:09;;;;;;;4.68;2.95;;;;;;;;;;4991489;28;20034;-38
2021/12/17 11:52:35;;;;;;;7.90;2.65;;;;;;;;;;4990764;28;20030;-36
2021/12/17 11:55:20;;;;;;;5.15;2.17;;;;;;;;;;4985446;28;20022;-35
2021/12/17 11:57:46;;;;;;;10.55;2.90;;;;;;;;;;4991050;28;20204;-35
2021/12/17 12:00:16;;;;;;;6.00;2.58;;;;;;;;;;4990730;28;20393;-37
2021/12/17 12:02:49;;;;;;;5.70;2.95;;;;;;;;;;4990666;28;20370;-37
2021/12/17 12:05:35;;;;;;;5.00;2.38;;;;;;;;;;4990857;28;20553;-39
2021/12/17 12:08:19;;;;;;;5.90;2.75;;;;;;;;;;4991134;28;20410;-36
2021/12/17 12:11:02;;;;;;;4.78;2.55;;;;;;;;;;4991219;28;20682;-38
2021/12/17 12:13:35;;;;;;;7.95;3.28;;;;;;;;;;4990131;28;20045;-39
2021/12/17 12:16:02;;;;;;;9.68;2.83;;;;;;;;;;4988333;28;20109;-36
2021/12/17 12:18:38;;;;;;;9.18;3.42;;;;;;;;;;4991129;28;20494;-41
2021/12/17 12:21:04;;;;;;;10.45;2.88;;;;;;;;;;4988574;28;20113;-42
2021/12/17 12:23:31;;;;;;;2.85;2.00;;;;;;;;;;4986680;28;20027;-39
2021/12/17 12:26:11;;;;;;;5.70;2.85;;;;;;;;;;4989649;28;20026;-41
2021/12/17 12:28:46;;;;;;;7.28;2.95;;;;;;;;;;4989772;28;20053;-37
2021/12/17 12:31:18;;;;;;;4.63;2.33;;;;;;;;;;4987070;28;20571;-36
2021/12/17 12:34:07;;;;;;;6.80;2.55;;;;;;;;;;4987870;28;20041;-37
2021/12/17 12:36:52;;;;;;;4.65;2.35;;;;;;;;;;4973494;28;20185;-35
2021/12/17 12:39:24;;;;;;;4.40;2.80;;;;;;;;;;4984537;28;20036;-36
2021/12/17 12:41:59;;;;;;;6.72;2.55;;;;;;;;;;4988047;28;20042;-39
2021/12/17 12:44:40;;;;;;;3.00;2.20;;;;;;;;;;4986766;28;20036;-37
2021/12/17 12:47:07;;;;;;;4.25;2.40;;;;;;;;;;4987795;28;20981;-35
2021/12/17 12:49:45;;;;;;;3.03;2.15;;;;;;;;;;4988532;28;20054;-39
2021/12/17 12:52:15;;;;;;;4.18;1.95;;;;;;;;;;4988301;28;20114;-35
2021/12/17 12:54:42;;;;;;;4.07;2.03;;;;;;;;;;4987939;28;20477;-38
2021/12/17 12:57:09;;;;;;;3.63;1.85;;;;;;;;;;4990727;28;20446;-36
2021/12/17 12:59:35;;;;;;;4.53;2.33;;;;;;;;;;4989655;28;20039;-39
2021/12/17 13:02:01;;;;;;;4.68;2.53;;;;;;;;;;4989394;28;20505;-38
2021/12/17 13:04:31;;;;;;;5.97;2.33;;;;;;;;;;4990991;28;20085;-38
2021/12/17 13:06:57;;;;;;;6.68;2.40;;;;;;;;;;4990837;28;20028;-36
2021/12/17 13:09:29;;;;;;;3.45;1.95;;;;;;;;;;4991051;28;20109;-37
2021/12/17 13:11:56;;;;;;;5.82;2.65;;;;;;;;;;4990851;28;20054;-38
2021/12/17 13:14:25;;;;;;;4.35;2.40;;;;;;;;;;4988616;28;20387;-35
2021/12/17 13:17:29;;;;;;;5.63;2.38;;;;;;;;;;4991802;28;20030;-39
2021/12/17 13:22:57;;;;;;;5.43;2.30;;;;;;;;;;4968434;28;20457;-37
2021/12/17 13:25:27;;;;;;;3.60;2.47;;;;;;;;;;4991139;28;20023;-38
2021/12/17 13:27:56;;;;;;;8.30;2.45;;;;;;;;;;4991716;28;20030;-37
2021/12/17 13:30:26;;;;;;;3.65;2.15;;;;;;;;;;4990947;28;20107;-39
2021/12/17 13:32:53;;;;;;;4.75;2.63;;;;;;;;;;4990467;28;20103;-39
2021/12/17 13:35:21;;;;;;;4.40;2.33;;;;;;;;;;4992660;28;20401;-36
2021/12/17 13:37:47;;;;;;;4.15;2.53;;;;;;;;;;4996773;28;20113;-37
2021/12/17 13:40:13;;;;;;;4.28;2.92;;;;;;;;;;4990385;28;20114;-39
2021/12/17 13:42:45;;;;;;;4.05;2.17;;;;;;;;;;4987124;28;20034;-39
2021/12/17 13:45:20;;;;;;;2.70;1.83;;;;;;;;;;4987044;28;20022;-39
2021/12/17 13:47:51;;;;;;;3.72;2.10;;;;;;;;;;4985119;28;20494;-36
2021/12/17 13:50:23;;;;;;;4.22;2.00;;;;;;;;;;4984419;28;20026;-36
2021/12/17 13:53:15;;;;;;;8.75;2.00;;;;;;;;;;4991923;28;20034;-37
2021/12/17 13:55:46;;;;;;;4.25;2.20;;;;;;;;;;4989005;28;20437;-38
2021/12/17 13:58:20;;;;;;;3.90;2.30;;;;;;;;;;4991126;28;20041;-36
2021/12/17 14:00:49;;;;;;;5.47;2.25;;;;;;;;;;4989768;28;20081;-36
2021/12/17 14:03:16;;;;;;;4.70;2.45;;;;;;;;;;4987553;28;20089;-36
2021/12/17 14:05:48;;;;;;;6.45;2.20;;;;;;;;;;4990921;28;20026;-39
2021/12/17 14:08:15;;;;;;;3.17;1.75;;;;;;;;;;4993377;28;20015;-40
2021/12/17 14:10:41;;;;;;;3.53;1.95;;;;;;;;;;4992864;28;20118;-36
2021/12/17 14:13:16;;;;;;;4.38;2.40;;;;;;;;;;4991076;28;20053;-36
2021/12/17 14:15:43;;;;;;;3.75;2.03;;;;;;;;;;4992199;28;20508;-36
2021/12/17 14:18:09;;;;;;;3.45;2.25;;;;;;;;;;4992186;28;20027;-37
2021/12/17 14:20:45;;;;;;;4.25;2.47;;;;;;;;;;4988551;28;20044;-36
2021/12/17 14:23:19;;;;;;;6.25;3.03;;;;;;;;;;4989152;28;20069;-36
2021/12/17 14:25:47;;;;;;;6.60;2.85;;;;;;;;;;4991922;28;20193;-36
2021/12/17 14:28:25;;;;;;;4.55;3.00;;;;;;;;;;4987725;28;20456;-39
2021/12/17 14:30:56;;;;;;;7.03;2.50;;;;;;;;;;4988104;28;20501;-36
2021/12/17 14:33:24;;;;;;;6.47;3.33;;;;;;;;;;4991208;28;20030;-38
2021/12/17 14:35:58;;;;;;;6.18;3.55;;;;;;;;;;4989816;28;20062;-36
2021/12/17 14:38:35;;;;;;;9.03;4.50;;;;;;;;;;4987639;28;20081;-40
2021/12/17 14:41:02;;;;;;;7.35;3.80;;;;;;;;;;4994276;28;20500;-36
2021/12/17 14:43:34;;;;;;;7.10;4.00;;;;;;;;;;4995195;28;20057;-36
2021/12/17 14:46:16;;;;;;;9.32;5.38;;;;;;;;;;4995698;28;20052;-38
2021/12/17 15:04:44;;;;;;;13.00;6.72;;;;;;;;;;4988318;28;20139;-37
2021/12/17 15:07:11;;;;;;;17.42;8.10;;;;;;;;;;4991366;28;20705;-38
2021/12/17 15:09:40;;;;;;;15.27;7.93;;;;;;;;;;4991925;28;20026;-36
2021/12/17 15:12:24;;;;;;;15.88;8.45;;;;;;;;;;4989405;28;20055;-37
2021/12/17 15:14:51;;;;;;;12.38;7.72;;;;;;;;;;4993170;28;20042;-37
2021/12/17 15:17:17;;;;;;;16.10;7.28;;;;;;;;;;4994686;28;20031;-36
2021/12/17 15:19:43;;;;;;;14.80;7.85;;;;;;;;;;4992387;28;20033;-36
2021/12/17 15:22:09;;;;;;;17.52;7.38;;;;;;;;;;4992304;28;20030;-39
2021/12/17 15:24:35;;;;;;;18.02;7.20;;;;;;;;;;4993690;28;20030;-38
2021/12/17 15:27:01;;;;;;;13.63;6.97;;;;;;;;;;4991725;28;20057;-40
2021/12/17 15:29:27;;;;;;;14.35;7.57;;;;;;;;;;4991990;28;20058;-42
2021/12/17 15:31:53;;;;;;;11.88;6.32;;;;;;;;;;4990203;28;20048;-40
2021/12/17 15:34:19;;;;;;;12.95;6.38;;;;;;;;;;4990559;28;20030;-38
2021/12/17 15:36:45;;;;;;;9.98;6.03;;;;;;;;;;4992059;28;20517;-41
2021/12/17 15:39:11;;;;;;;9.70;5.97;;;;;;;;;;4991684;28;20062;-38
2021/12/17 15:41:41;;;;;;;10.63;6.80;;;;;;;;;;4991499;28;20559;-41
2021/12/17 15:44:08;;;;;;;12.77;6.30;;;;;;;;;;4991808;28;20474;-42
2021/12/17 15:46:34;;;;;;;13.63;6.75;;;;;;;;;;4975962;28;20039;-40
2021/12/17 15:49:00;;;;;;;14.80;6.60;;;;;;;;;;4991763;28;20018;-38
2021/12/17 15:51:26;;;;;;;14.80;8.02;;;;;;;;;;4989974;28;20023;-39
2021/12/17 15:53:52;;;;;;;12.63;8.00;;;;;;;;;;4992892;28;20031;-39
2021/12/17 15:56:18;;;;;;;12.73;7.68;;;;;;;;;;4989541;28;20049;-41
2021/12/17 15:58:44;;;;;;;13.73;7.60;;;;;;;;;;5003654;23;20010;-37
2021/12/17 16:01:10;;;;;;;12.50;7.20;;;;;;;;;;4989627;28;20062;-38
2021/12/17 16:03:37;;;;;;;16.13;9.57;;;;;;;;;;4982063;28;20023;-38
2021/12/17 16:06:05;;;;;;;15.60;8.73;;;;;;;;;;4987836;28;20113;-39
2021/12/17 16:08:34;;;;;;;20.17;9.38;;;;;;;;;;4988587;28;20029;-39
2021/12/17 16:21:43;;;;;;;14.15;9.23;;;;;;;;;;4983785;28;20507;-39
2021/12/17 16:24:09;;;;;;;14.73;8.98;;;;;;;;;;4983964;28;20363;-38
2021/12/17 16:26:35;;;;;;;17.92;9.20;;;;;;;;;;4972091;28;20537;-39
2021/12/17 16:29:01;;;;;;;18.65;9.80;;;;;;;;;;4976942;28;20109;-38
2021/12/17 16:31:28;;;;;;;22.55;9.90;;;;;;;;;;4969376;28;20034;-39
2021/12/17 16:33:58;;;;;;;16.75;10.30;;;;;;;;;;4968565;28;21594;-38
2021/12/17 16:36:24;;;;;;;20.02;10.82;;;;;;;;;;4967355;28;20023;-39
2021/12/17 16:38:50;;;;;;;21.98;12.13;;;;;;;;;;4975100;28;20023;-37
2021/12/17 16:41:16;;;;;;;22.60;12.25;;;;;;;;;;4968538;28;20053;-40
2021/12/17 16:43:44;;;;;;;24.30;11.80;;;;;;;;;;4971777;28;20417;-39
2021/12/17 16:48:38;;;;;;;24.83;12.75;;;;;;;;;;4979867;28;20114;-40
2021/12/17 16:51:04;;;;;;;27.05;12.68;;;;;;;;;;4974998;28;20031;-38
2021/12/17 16:53:30;;;;;;;32.72;13.77;;;;;;;;;;4984489;28;20026;-37
2021/12/17 16:55:57;;;;;;;25.92;13.15;;;;;;;;;;4978255;28;20080;-39
2021/12/17 16:58:23;;;;;;;29.55;13.18;;;;;;;;;;4979808;28;20397;-38
2021/12/17 17:00:49;;;;;;;27.48;10.85;;;;;;;;;;4972002;28;20519;-39
2021/12/17 17:03:15;;;;;;;20.10;10.63;;;;;;;;;;4970466;28;20023;-38
2021/12/17 17:05:42;;;;;;;16.92;8.43;;;;;;;;;;4972666;28;20074;-40
2021/12/17 17:08:08;;;;;;;18.13;7.70;;;;;;;;;;4977818;28;20097;-40
2021/12/17 17:10:34;;;;;;;22.25;12.13;;;;;;;;;;4972795;28;20096;-40
2021/12/17 17:13:04;;;;;;;14.18;7.88;;;;;;;;;;4974123;28;20074;-40
2021/12/17 17:15:34;;;;;;;14.50;7.28;;;;;;;;;;4968787;28;20053;-40
2021/12/17 17:18:04;;;;;;;9.00;6.07;;;;;;;;;;4976911;28;20023;-40
2021/12/17 17:20:30;;;;;;;17.00;7.47;;;;;;;;;;4977594;28;20648;-40
2021/12/17 17:22:57;;;;;;;10.18;7.00;;;;;;;;;;4971627;28;20027;-41
2021/12/17 17:25:23;;;;;;;12.30;6.40;;;;;;;;;;4976725;28;20642;-40
2021/12/17 17:27:49;;;;;;;11.55;6.13;;;;;;;;;;4981335;28;20026;-40
2021/12/17 17:30:16;;;;;;;10.75;6.47;;;;;;;;;;4972035;28;20192;-40
2021/12/17 17:32:42;;;;;;;11.25;6.32;;;;;;;;;;4970986;28;20035;-40
2021/12/17 17:35:09;;;;;;;11.48;6.22;;;;;;;;;;4973763;28;20405;-41
2021/12/17 17:37:35;;;;;;;6.93;4.07;;;;;;;;;;4970711;28;20023;-40
2021/12/17 17:40:01;;;;;;;5.45;3.70;;;;;;;;;;4961772;28;20377;-39
2021/12/17 17:42:27;;;;;;;7.03;4.45;;;;;;;;;;4960415;28;20521;-40
2021/12/17 17:44:53;;;;;;;6.50;3.55;;;;;;;;;;4967880;28;20035;-39
2021/12/17 17:47:20;;;;;;;6.85;4.45;;;;;;;;;;4967917;28;20035;-39
2021/12/17 17:49:46;;;;;;;5.85;3.72;;;;;;;;;;4964680;28;20046;-40
2021/12/17 17:52:12;;;;;;;10.30;4.60;;;;;;;;;;4971092;28;20031;-40
2021/12/17 17:54:38;;;;;;;8.65;3.83;;;;;;;;;;4965090;28;20054;-40
2021/12/17 17:57:04;;;;;;;8.13;3.83;;;;;;;;;;4965635;28;20101;-40